الصفحة الرئيسية
METAR-TAF:

METAR-TAF

مطار :

Koumac, نيو كاليدونيا

دائرة عرض: 20-34S, خط طول: 164-17E, ارتفاع: 23 متر

METAR: مفقودة

زمن: 09:38 (22:38 UTC)

توقعات

تاريخ ووقت الإصدار 5ساعات و 38 دقيقة قبل الساعة 17:00UTC
التوقعات صالحة من25 الساعة 18 UTC إلى 26 الساعة 18 UTC
ريح 2 عقدةمن اتجاهات متغيرة
الرؤية 10 كم أو أكثر
غيوم قليلة على ارتفاع 2500 قدم
أصبح
من 25 الساعة 22 UTC إلى 25 الساعة 24 UTC
ريح 10 عقدة من الجنوب/الجنوب الغربي
نظرية الاحتمالات 40% :
مؤقت
من 25 الساعة 18 UTC إلى 26 الساعة 18 UTC
الرؤية: 3000 متر
غيوم مفككة على ارتفاع 1400 قدم
غيوم قليلة على ارتفاع 2000 قدم, مزنة ركامية.
زخات من المطر
نظرية الاحتمالات 30% :
مؤقت
من 25 الساعة 18 UTC إلى 25 الساعة 22 UTC
الرؤية: 1500 متر
غيوم مفككة على ارتفاع 800 قدم
غيوم مفككة على ارتفاع 1600 قدم, مزنة ركامية.
عاصفة رعدية, مطر غزير

TAF: NWWK 251700Z 2518/2618 VRB02KT 9999 FEW025 BECMG 2522/2524 21010KT PROB40 TEMPO 2518/2618 3000 SHRA BKN014 FEW020CB PROB30 TEMPO 2518/2522 1500 +TSRA BKN008 BKN016CB

أرصاد الطقس والتوقعات من أكثر من 4000 مطار (تقارير الطقس للمطار METAR والتنبؤ بالطقس بالمطارTAF).

المحطات المتاحة هي النقط الصفراء والحمراء على الخريطة.

حرك المؤشر فوق النقطة لمعرفة اسم المحطة.

ثم انقر لمعرفة أرصاد وتوقعات الطقس.

لتغيير الخارطة: اضغط على الأزرار الخضراء مع رمز الصليب الأسود للتكبير. على الزر الأخضر مع شرطة للتصغير، أو على الأسهم الخضراء للخرائط المجاورة.


METAR-TAF: